createdAt,value
2019-03-31T00:00:01.421Z,7.70
2019-03-31T00:02:53.440Z,6.93
2019-03-31T00:05:45.223Z,6.83
2019-03-31T00:08:35.418Z,7.07
2019-03-31T00:11:25.801Z,8.17
2019-03-31T00:14:17.360Z,7.77
2019-03-31T00:17:08.682Z,7.97
2019-03-31T00:19:59.092Z,7.60
2019-03-31T00:22:50.040Z,7.43
2019-03-31T00:25:42.720Z,8.67
2019-03-31T00:28:33.820Z,7.67
2019-03-31T00:31:23.891Z,8.00
2019-03-31T00:34:14.981Z,8.77
2019-03-31T00:37:07.784Z,9.97
2019-03-31T00:39:59.461Z,8.17
2019-03-31T00:42:50.301Z,8.10
2019-03-31T00:45:41.180Z,9.27
2019-03-31T00:48:31.907Z,8.33
2019-03-31T00:51:22.337Z,8.50
2019-03-31T00:54:13.534Z,8.20
2019-03-31T00:57:04.081Z,8.33
2019-03-31T00:59:54.659Z,7.43
2019-03-31T01:02:45.441Z,8.47
2019-03-31T01:05:36.939Z,8.33
2019-03-31T01:08:30.460Z,7.63
2019-03-31T01:11:26.220Z,8.30
2019-03-31T01:14:17.361Z,8.33
2019-03-31T01:17:11.740Z,8.20
2019-03-31T01:20:02.620Z,7.97
2019-03-31T01:22:54.861Z,8.07
2019-03-31T01:25:45.282Z,8.40
2019-03-31T01:28:35.926Z,7.87
2019-03-31T01:31:28.541Z,7.10
2019-03-31T01:34:20.213Z,7.87
2019-03-31T01:37:13.307Z,7.87
2019-03-31T01:40:04.132Z,7.43
2019-03-31T01:42:54.780Z,7.27
2019-03-31T01:45:45.225Z,7.43
2019-03-31T01:48:36.540Z,7.53
2019-03-31T01:51:29.041Z,7.47
2019-03-31T01:54:20.217Z,6.87
2019-03-31T01:57:10.399Z,7.43
2019-03-31T02:03:23.291Z,8.33
2019-03-31T02:06:14.524Z,7.40
2019-03-31T02:09:07.941Z,7.13
2019-03-31T02:11:58.470Z,6.53
2019-03-31T02:14:48.734Z,7.10
2019-03-31T02:17:39.260Z,7.13
2019-03-31T02:20:30.500Z,6.73
2019-03-31T02:23:21.240Z,7.67
2019-03-31T02:26:12.060Z,7.63
2019-03-31T02:29:04.084Z,7.80
2019-03-31T02:31:54.963Z,6.83
2019-03-31T02:34:46.161Z,6.37
2019-03-31T02:37:37.060Z,6.73
2019-03-31T02:40:28.881Z,6.40
2019-03-31T02:43:19.782Z,7.00
2019-03-31T02:46:10.335Z,8.67
2019-03-31T02:49:00.585Z,7.37
2019-03-31T02:51:51.602Z,7.03
2019-03-31T02:54:42.981Z,6.73
2019-03-31T02:57:34.759Z,6.40
2019-03-31T03:00:25.102Z,7.50
2019-03-31T03:03:18.282Z,6.67
2019-03-31T03:06:10.644Z,7.97
2019-03-31T03:09:04.081Z,6.47
2019-03-31T03:11:56.904Z,6.53
2019-03-31T03:14:50.441Z,6.93
2019-03-31T03:17:41.724Z,6.83
2019-03-31T03:20:32.421Z,6.27
2019-03-31T03:23:22.984Z,5.93
2019-03-31T03:26:13.522Z,6.53
2019-03-31T03:29:04.405Z,6.00
2019-03-31T03:31:54.648Z,6.53
2019-03-31T03:34:45.381Z,6.60
2019-03-31T03:37:36.423Z,7.30
2019-03-31T03:40:31.028Z,6.43
2019-03-31T03:43:22.182Z,5.83
2019-03-31T03:46:12.430Z,5.70
2019-03-31T03:49:04.131Z,7.67
2019-03-31T03:51:55.122Z,5.70
2019-03-31T03:54:45.300Z,7.70
2019-03-31T03:57:35.680Z,7.90
2019-03-31T04:00:28.583Z,6.43
2019-03-31T04:03:29.774Z,6.73
2019-03-31T04:06:12.002Z,6.87
2019-03-31T04:09:02.869Z,6.43
2019-03-31T04:11:53.581Z,7.20
2019-03-31T04:14:43.961Z,7.00
2019-03-31T04:17:34.822Z,6.83
2019-03-31T04:20:25.693Z,6.47
2019-03-31T04:23:16.913Z,6.70
2019-03-31T04:26:07.781Z,7.10
2019-03-31T04:28:58.809Z,6.60
2019-03-31T04:31:50.106Z,6.70
2019-03-31T04:34:40.463Z,6.53
2019-03-31T04:37:31.861Z,6.53
2019-03-31T04:40:23.125Z,5.97
2019-03-31T04:43:13.740Z,7.00
2019-03-31T04:46:04.901Z,7.20
2019-03-31T04:48:55.643Z,6.80
2019-03-31T04:51:46.661Z,6.57
2019-03-31T04:54:38.164Z,6.47
2019-03-31T04:57:29.059Z,6.67
2019-03-31T05:00:18.894Z,6.27
2019-03-31T05:03:09.580Z,5.63
2019-03-31T05:06:01.701Z,5.23
2019-03-31T05:08:52.900Z,5.27
2019-03-31T05:11:43.301Z,6.83
2019-03-31T05:14:34.401Z,6.93
2019-03-31T05:17:25.261Z,5.83
2019-03-31T05:20:15.880Z,7.00
2019-03-31T05:23:07.089Z,5.40
2019-03-31T05:25:57.400Z,5.43
2019-03-31T05:28:48.401Z,5.33
2019-03-31T05:31:39.463Z,5.13
2019-03-31T05:34:30.501Z,5.53
2019-03-31T05:37:22.321Z,6.20
2019-03-31T05:40:13.602Z,5.40
2019-03-31T05:43:05.200Z,6.60
2019-03-31T05:45:55.920Z,5.90
2019-03-31T05:48:47.160Z,6.70
2019-03-31T05:51:38.126Z,6.90
2019-03-31T05:54:28.621Z,7.97
2019-03-31T05:57:19.441Z,6.53
2019-03-31T06:00:10.980Z,5.50
2019-03-31T06:03:02.140Z,5.20
2019-03-31T06:05:56.140Z,5.67
2019-03-31T06:08:48.479Z,4.93
2019-03-31T06:11:38.762Z,4.83
2019-03-31T06:14:29.264Z,5.00
2019-03-31T06:17:20.082Z,5.00
2019-03-31T06:20:10.620Z,5.57
2019-03-31T06:23:02.108Z,4.80
2019-03-31T06:25:52.246Z,5.17
2019-03-31T06:28:42.541Z,5.43
2019-03-31T06:31:33.921Z,5.33
2019-03-31T06:34:24.667Z,5.03
2019-03-31T06:37:16.000Z,4.23
2019-03-31T06:40:08.101Z,5.13
2019-03-31T06:42:58.966Z,6.07
2019-03-31T06:45:49.806Z,4.53
2019-03-31T06:48:41.277Z,5.03
2019-03-31T06:51:32.421Z,5.17
2019-03-31T06:54:23.200Z,5.10
2019-03-31T06:57:13.900Z,5.30
2019-03-31T07:00:05.760Z,5.00
2019-03-31T07:02:56.419Z,6.03
2019-03-31T07:05:46.981Z,5.40
2019-03-31T07:08:38.179Z,5.60
2019-03-31T07:11:28.940Z,4.93
2019-03-31T07:14:19.632Z,6.73
2019-03-31T07:17:11.780Z,6.77
2019-03-31T07:20:03.482Z,5.93
2019-03-31T07:22:54.047Z,6.67
2019-03-31T07:25:44.910Z,6.17
2019-03-31T07:28:35.921Z,5.70
2019-03-31T07:31:26.480Z,6.30
2019-03-31T07:34:17.700Z,7.17
2019-03-31T07:37:09.562Z,6.57
2019-03-31T07:40:01.199Z,7.40
2019-03-31T07:42:52.185Z,6.63
2019-03-31T07:45:43.301Z,8.00
2019-03-31T07:48:33.921Z,9.60
2019-03-31T07:51:24.541Z,9.23
2019-03-31T07:54:15.761Z,8.97
2019-03-31T07:57:07.334Z,9.83
2019-03-31T07:59:57.885Z,9.80
2019-03-31T08:02:49.281Z,10.30
2019-03-31T08:05:40.284Z,11.20
2019-03-31T08:08:31.140Z,9.60
2019-03-31T08:11:21.603Z,10.47
2019-03-31T08:14:12.584Z,10.63
2019-03-31T08:17:04.923Z,10.20
2019-03-31T08:19:55.622Z,9.17
2019-03-31T08:22:45.797Z,10.03
2019-03-31T08:25:37.140Z,10.30
2019-03-31T08:28:28.280Z,10.77
2019-03-31T08:31:18.656Z,10.27
2019-03-31T08:34:09.841Z,9.50
2019-03-31T08:37:01.243Z,9.07
2019-03-31T08:39:51.883Z,8.73
2019-03-31T08:42:42.420Z,9.57
2019-03-31T08:45:34.800Z,8.23
2019-03-31T08:48:25.681Z,8.87
2019-03-31T08:51:16.721Z,9.47
2019-03-31T08:54:07.165Z,9.60
2019-03-31T08:56:58.642Z,9.53
2019-03-31T08:59:51.820Z,9.20
2019-03-31T09:02:42.380Z,10.13
2019-03-31T09:05:32.621Z,8.25
2019-03-31T09:08:23.444Z,8.83
2019-03-31T09:11:16.561Z,8.15
2019-03-31T09:14:07.641Z,7.45
2019-03-31T09:16:58.520Z,7.92
2019-03-31T09:19:49.541Z,7.75
2019-03-31T09:22:42.100Z,7.70
2019-03-31T09:25:32.322Z,7.70
2019-03-31T09:28:23.461Z,7.00
2019-03-31T09:31:14.152Z,7.75
2019-03-31T09:34:04.531Z,7.78
2019-03-31T09:36:55.770Z,7.95
2019-03-31T09:39:47.681Z,7.60
2019-03-31T09:42:39.338Z,6.67
2019-03-31T09:45:30.961Z,7.42
2019-03-31T09:48:22.223Z,7.12
2019-03-31T09:51:13.220Z,8.03
2019-03-31T09:54:04.242Z,7.50
2019-03-31T09:56:54.540Z,6.72
2019-03-31T09:59:45.700Z,6.85
2019-03-31T10:02:36.479Z,8.33
2019-03-31T10:05:27.462Z,7.62
2019-03-31T10:08:22.246Z,6.28
2019-03-31T10:11:12.421Z,6.75
2019-03-31T10:14:03.280Z,5.87
2019-03-31T10:16:53.986Z,6.55
2019-03-31T10:19:44.721Z,6.80
2019-03-31T10:22:35.381Z,6.20
2019-03-31T10:25:26.501Z,6.53
2019-03-31T10:28:16.898Z,6.03
2019-03-31T10:31:08.062Z,5.60
2019-03-31T10:33:58.753Z,5.35
2019-03-31T10:36:50.001Z,6.25
2019-03-31T10:39:40.700Z,6.35
2019-03-31T10:42:31.281Z,5.45
2019-03-31T10:45:22.504Z,5.73
2019-03-31T10:48:20.906Z,5.62
2019-03-31T10:51:06.640Z,5.67
2019-03-31T10:53:57.520Z,5.03
2019-03-31T10:56:48.400Z,5.03
2019-03-31T10:59:39.680Z,4.62
2019-03-31T11:02:29.862Z,4.72
2019-03-31T11:05:20.541Z,4.50
2019-03-31T11:08:10.980Z,4.60
2019-03-31T11:11:01.581Z,4.45
2019-03-31T11:13:52.102Z,4.20
2019-03-31T11:16:43.301Z,4.00
2019-03-31T11:19:36.940Z,4.40
2019-03-31T11:22:32.081Z,4.28
2019-03-31T11:25:26.304Z,4.43
2019-03-31T11:28:14.663Z,4.35
2019-03-31T11:31:05.974Z,4.07
2019-03-31T11:33:57.200Z,4.10
2019-03-31T11:36:47.960Z,4.12
2019-03-31T11:39:38.101Z,4.28
2019-03-31T11:42:28.427Z,3.90
2019-03-31T11:45:19.746Z,4.07
2019-03-31T11:48:10.361Z,3.60
2019-03-31T11:51:01.942Z,4.03
2019-03-31T11:53:54.144Z,3.62
2019-03-31T11:56:45.524Z,3.85
2019-03-31T11:59:37.523Z,3.83
2019-03-31T12:02:28.481Z,3.80
2019-03-31T12:05:18.698Z,3.23
2019-03-31T12:08:09.500Z,3.80
2019-03-31T12:11:00.283Z,3.50
2019-03-31T12:13:51.169Z,3.25
2019-03-31T12:16:41.235Z,3.50
2019-03-31T12:19:31.511Z,3.35
2019-03-31T12:22:22.107Z,3.15
2019-03-31T12:25:13.021Z,2.80
2019-03-31T12:28:03.441Z,3.55
2019-03-31T12:30:54.182Z,3.20
2019-03-31T12:33:45.600Z,3.27
2019-03-31T12:36:37.921Z,3.50
2019-03-31T12:39:28.941Z,3.67
2019-03-31T12:42:19.960Z,3.00
2019-03-31T12:45:11.143Z,3.67
2019-03-31T12:48:01.980Z,3.45
2019-03-31T12:50:52.722Z,4.30
2019-03-31T12:53:43.825Z,3.87
2019-03-31T12:56:34.639Z,4.03
2019-03-31T12:59:27.196Z,3.80
2019-03-31T13:02:17.381Z,3.60
2019-03-31T13:05:08.581Z,3.80
2019-03-31T13:07:59.863Z,3.55
2019-03-31T13:10:51.721Z,3.55
2019-03-31T13:13:43.021Z,3.10
2019-03-31T13:16:33.660Z,3.37
2019-03-31T13:19:24.560Z,4.42
2019-03-31T13:22:15.341Z,5.25
2019-03-31T13:25:06.640Z,4.47
2019-03-31T13:27:57.740Z,4.20
2019-03-31T13:30:48.742Z,4.80
2019-03-31T13:33:38.980Z,4.35
2019-03-31T13:36:29.560Z,5.00
2019-03-31T13:39:20.400Z,4.65
2019-03-31T13:42:11.941Z,4.97
2019-03-31T13:45:04.483Z,4.10
2019-03-31T13:47:58.640Z,4.28
2019-03-31T13:50:50.260Z,3.70
2019-03-31T13:53:41.221Z,3.85
2019-03-31T13:56:32.763Z,3.58
2019-03-31T13:59:25.221Z,3.45
2019-03-31T14:02:16.461Z,3.85
2019-03-31T14:05:08.408Z,4.72
2019-03-31T14:07:59.363Z,4.17
2019-03-31T14:10:51.041Z,4.33
2019-03-31T14:13:43.528Z,4.35
2019-03-31T14:16:36.820Z,4.28
2019-03-31T14:19:27.604Z,3.98
2019-03-31T14:22:18.181Z,4.25
2019-03-31T14:25:09.520Z,4.15
2019-03-31T14:28:01.082Z,3.98
2019-03-31T14:30:51.372Z,4.05
2019-03-31T14:33:42.401Z,3.80
2019-03-31T14:36:32.638Z,4.10
2019-03-31T14:39:23.181Z,6.00
2019-03-31T14:42:13.393Z,4.00
2019-03-31T14:45:04.721Z,4.25
2019-03-31T14:47:55.714Z,3.75
2019-03-31T14:50:46.190Z,5.17
2019-03-31T14:53:37.068Z,3.87
2019-03-31T14:56:31.781Z,3.80
2019-03-31T14:59:22.286Z,4.25
2019-03-31T15:02:13.201Z,3.80
2019-03-31T15:05:04.081Z,4.35
2019-03-31T15:07:58.296Z,5.50
2019-03-31T15:10:46.363Z,4.17
2019-03-31T15:13:37.402Z,5.37
2019-03-31T15:16:29.081Z,6.92
2019-03-31T15:19:20.101Z,4.62
2019-03-31T15:22:10.982Z,4.47
2019-03-31T15:25:03.461Z,4.60
2019-03-31T15:27:54.961Z,4.75
2019-03-31T15:30:46.041Z,4.30
2019-03-31T15:33:36.535Z,4.45
2019-03-31T15:36:27.100Z,4.87
2019-03-31T15:39:17.809Z,4.65
2019-03-31T15:42:09.112Z,5.03
2019-03-31T15:45:00.401Z,5.17
2019-03-31T15:47:51.442Z,5.08
2019-03-31T15:50:42.400Z,4.47
2019-03-31T15:53:32.882Z,4.58
2019-03-31T15:56:23.295Z,5.20
2019-03-31T15:59:13.881Z,3.50
2019-03-31T16:02:04.561Z,3.45
2019-03-31T16:04:54.481Z,3.87
2019-03-31T16:07:51.120Z,3.40
2019-03-31T16:10:40.721Z,3.27
2019-03-31T16:13:31.245Z,3.50
2019-03-31T16:16:22.341Z,3.80
2019-03-31T16:19:13.123Z,4.00
2019-03-31T16:22:03.304Z,3.47
2019-03-31T16:24:56.329Z,3.67
2019-03-31T16:27:46.976Z,3.72
2019-03-31T16:30:37.960Z,4.20
2019-03-31T16:33:27.796Z,3.80
2019-03-31T16:36:17.341Z,4.53
2019-03-31T16:39:08.287Z,4.65
2019-03-31T16:41:57.715Z,4.50
2019-03-31T16:44:57.951Z,4.33
2019-03-31T16:47:38.960Z,4.43
2019-03-31T16:50:29.841Z,4.27
2019-03-31T16:53:20.101Z,4.10
2019-03-31T16:56:10.661Z,3.90
2019-03-31T16:59:00.562Z,4.03
2019-03-31T17:01:50.419Z,3.67
2019-03-31T17:04:40.433Z,4.63
2019-03-31T17:07:30.519Z,4.00
2019-03-31T17:10:22.161Z,4.47
2019-03-31T17:13:12.176Z,4.57
2019-03-31T17:16:02.142Z,4.60
2019-03-31T17:18:52.410Z,4.13
2019-03-31T17:21:43.066Z,3.97
2019-03-31T17:24:33.481Z,5.30
2019-03-31T17:27:23.303Z,4.73
2019-03-31T17:30:14.741Z,4.27
2019-03-31T17:33:05.054Z,4.23
2019-03-31T17:35:54.621Z,4.37
2019-03-31T17:38:44.581Z,4.40
2019-03-31T17:41:35.142Z,4.83
2019-03-31T17:44:25.400Z,3.73
2019-03-31T17:47:15.241Z,5.40
2019-03-31T17:50:05.867Z,4.53
2019-03-31T17:52:56.136Z,5.03
2019-03-31T17:55:46.649Z,4.93
2019-03-31T17:58:36.282Z,4.33
2019-03-31T18:01:26.521Z,4.43
2019-03-31T18:04:17.041Z,5.00
2019-03-31T18:07:06.761Z,4.93
2019-03-31T18:09:56.862Z,4.07
2019-03-31T18:12:47.460Z,4.77
2019-03-31T18:15:38.661Z,5.17
2019-03-31T18:18:28.381Z,4.50
2019-03-31T18:21:17.943Z,5.10
2019-03-31T18:24:08.101Z,4.67
2019-03-31T18:26:58.344Z,4.83
2019-03-31T18:29:48.968Z,5.23
2019-03-31T18:32:38.841Z,4.47
2019-03-31T18:35:31.582Z,5.00
2019-03-31T18:38:22.101Z,5.57
2019-03-31T18:41:14.615Z,4.57
2019-03-31T18:44:05.238Z,5.47
2019-03-31T18:46:56.117Z,5.57
2019-03-31T18:49:45.842Z,7.27
2019-03-31T18:52:37.351Z,9.83
2019-03-31T18:55:38.368Z,7.13
2019-03-31T18:59:00.715Z,6.37
2019-03-31T19:02:08.801Z,5.83
2019-03-31T19:05:33.141Z,7.17
2019-03-31T19:08:30.560Z,6.60
2019-03-31T19:11:48.680Z,6.20
2019-03-31T19:14:54.823Z,7.03
2019-03-31T19:18:19.261Z,6.87
2019-03-31T19:21:26.898Z,6.07
2019-03-31T19:24:46.753Z,5.77
2019-03-31T19:28:04.761Z,5.97
2019-03-31T19:31:12.481Z,6.23
2019-03-31T19:34:34.102Z,5.63
2019-03-31T19:37:50.007Z,6.20
2019-03-31T19:41:04.134Z,6.30
2019-03-31T19:44:08.860Z,6.30
2019-03-31T19:47:17.840Z,5.70
2019-03-31T19:50:32.740Z,6.30
2019-03-31T19:53:45.801Z,5.50
2019-03-31T19:57:00.580Z,6.30
2019-03-31T20:00:24.741Z,5.90
2019-03-31T20:03:32.721Z,5.90
2019-03-31T20:06:51.605Z,6.37
2019-03-31T20:09:56.561Z,6.13
2019-03-31T20:13:08.564Z,6.33
2019-03-31T20:16:23.367Z,7.93
2019-03-31T20:19:47.601Z,7.27
2019-03-31T20:23:02.483Z,7.10
2019-03-31T20:26:03.941Z,7.10
2019-03-31T20:29:06.440Z,7.23
2019-03-31T20:32:08.803Z,7.10
2019-03-31T20:35:29.361Z,9.27
2019-03-31T20:38:42.561Z,8.60
2019-03-31T20:42:07.120Z,8.43
2019-03-31T20:44:57.046Z,8.87
2019-03-31T20:47:46.641Z,8.10
2019-03-31T20:50:36.576Z,7.90
2019-03-31T20:53:26.960Z,8.60
2019-03-31T20:56:17.042Z,9.07
2019-03-31T20:59:07.448Z,8.03
2019-03-31T21:01:57.222Z,8.40
2019-03-31T21:04:47.754Z,8.60
2019-03-31T21:07:38.021Z,8.33
2019-03-31T21:10:27.693Z,8.47
2019-03-31T21:13:17.561Z,9.33
2019-03-31T21:16:08.346Z,7.77
2019-03-31T21:18:58.654Z,9.07
2019-03-31T21:21:48.821Z,7.90
2019-03-31T21:24:39.140Z,8.13
2019-03-31T21:27:28.900Z,7.83
2019-03-31T21:30:19.000Z,8.63
2019-03-31T21:33:09.840Z,7.30
2019-03-31T21:36:00.103Z,7.80
2019-03-31T21:38:49.830Z,8.23
2019-03-31T21:41:40.380Z,8.37
2019-03-31T21:44:30.820Z,8.00
2019-03-31T21:47:21.360Z,8.83
2019-03-31T21:50:11.961Z,9.17
2019-03-31T21:53:01.808Z,8.13
2019-03-31T21:55:51.586Z,8.23
2019-03-31T21:58:41.705Z,8.17
2019-03-31T22:01:32.423Z,8.40
2019-03-31T22:04:22.480Z,8.40
2019-03-31T22:07:12.984Z,9.00
2019-03-31T22:10:03.961Z,9.37
2019-03-31T22:12:55.141Z,8.33
2019-03-31T22:15:44.829Z,9.57
2019-03-31T22:18:35.300Z,10.07
2019-03-31T22:21:25.542Z,8.57
2019-03-31T22:24:15.770Z,7.87
2019-03-31T22:27:06.022Z,8.83
2019-03-31T22:29:55.921Z,9.07
2019-03-31T22:32:45.900Z,9.20
2019-03-31T22:35:36.400Z,9.03
2019-03-31T22:38:25.700Z,9.93
2019-03-31T22:41:15.744Z,10.47
2019-03-31T22:44:05.384Z,10.73
2019-03-31T22:46:56.102Z,11.03
2019-03-31T22:49:45.908Z,9.80
2019-03-31T22:52:36.601Z,9.80
2019-03-31T22:55:26.153Z,11.43
2019-03-31T22:58:16.085Z,11.10
2019-03-31T23:01:06.336Z,11.30
2019-03-31T23:03:56.881Z,11.73
2019-03-31T23:06:48.905Z,11.13
2019-03-31T23:09:38.921Z,11.87
2019-03-31T23:12:29.128Z,10.43
2019-03-31T23:15:19.461Z,12.77
2019-03-31T23:18:09.186Z,12.53
2019-03-31T23:21:01.666Z,12.83
2019-03-31T23:23:51.608Z,13.47
2019-03-31T23:26:42.338Z,12.90
2019-03-31T23:29:32.736Z,13.60
2019-03-31T23:32:23.140Z,14.07
2019-03-31T23:35:12.821Z,14.53
2019-03-31T23:38:03.624Z,15.30
2019-03-31T23:40:54.086Z,14.63
2019-03-31T23:43:44.720Z,14.37
2019-03-31T23:46:34.641Z,15.80
2019-03-31T23:49:27.720Z,15.40
2019-03-31T23:52:18.161Z,16.07
2019-03-31T23:55:08.301Z,15.97
2019-03-31T23:57:58.121Z,14.57
